Frej — SBPT — position and weather

sailwx.info

Track history (hours):
 
Tides and Currents Weather Stations Pressure Air Temp Water Temp Dewpoint Dewpoint Depression Visibility Wind Speed Wind Dir Waves Ship Positions

Frej

Last reported at 2017-Jan-18 16:00 UTC. Time now 2017-Jan-18 18:06 UTC.
Position N 65°36' E 022°12'.

Length 108 m; draft 7.8 m.

Type: Other ship. MMSI: 265068000.

Wind from 190 at 16 knots

Barometer 1003.1 mb
Air temperature 2.3 ° C
Water temperature 0.5 ° C

Date/timePositionNaut miles runAvg speedWind from/ knotsBaromVisibWave heightAir tempDewpointWater temp
2017-Jan-18 16:00N 65°36' E 022°12'0 0.0 190 / 161003.1 2.3 0.5
2017-Jan-18 15:00N 65°36' E 022°12'0 0.0 190 / 101004.9 1.5 0.5
2017-Jan-18 12:00N 65°36' E 022°12'0 0.0 190 / 271008.9 0.5 0.6
2017-Jan-18 09:00N 65°36' E 022°12'0 0.0 230 / 141015.4 -1.3 0.7
2017-Jan-18 06:00N 65°36' E 022°12'0 0.0 240 / 81017.1 -1.9 0.6
2017-Jan-18 05:00N 65°36' E 022°12'0 0.0 290 / 61017.1 -0.9 0.7
2017-Jan-18 03:00N 65°36' E 022°12'0 0.0 310 / 81018.4 -1.3 0.6
2017-Jan-18 00:00N 65°36' E 022°12'0 0.0 280 / 81017.9 -1.0 0.6
2017-Jan-17 21:00N 65°36' E 022°12'0 0.0 270 / 171016.0 -0.0 0.6
2017-Jan-17 18:00N 65°36' E 022°12'0 0.0 270 / 121014.7 -0.8 0.7
2017-Jan-17 15:00N 65°36' E 022°12'0 0.0 190 / 61014.4 -3.1 0.7
2017-Jan-17 12:00N 65°36' E 022°12'0 0.0 180 / 81015.5 -3.2 0.7
2017-Jan-17 09:00N 65°36' E 022°12'0 0.0 210 / 101017.1 -4.6 0.7
2017-Jan-17 06:00N 65°36' E 022°12'0 0.0 200 / 121018.0 -5.4 0.7
2017-Jan-17 03:00N 65°36' E 022°12'0 0.0 190 / 141019.3 -6.6 0.7
2017-Jan-17 00:00N 65°36' E 022°12'0 0.0 180 / 101021.1 -11.6 0.7
2017-Jan-16 21:00N 65°36' E 022°12'0 0.0 200 / 61022.4 -11.8 0.7
2017-Jan-16 18:00N 65°36' E 022°12'0 0.0 180 / 41023.3 -12.8 0.7
2017-Jan-16 15:00N 65°36' E 022°12'0 0.0 330 / 61023.8 -10.1 0.7
2017-Jan-16 12:00N 65°36' E 022°12'0 0.0 340 / 101022.9 -8.3 0.7
2017-Jan-16 10:00N 65°36' E 022°12'0 0.0 330 / 141022.8 -8.2 0.7
2017-Jan-16 09:00N 65°36' E 022°12'0 0.0 340 / 121022.5 -8.3 0.7
2017-Jan-16 08:00N 65°36' E 022°12'0 0.0 330 / 101022.0 -8.4 0.7
2017-Jan-16 06:00N 65°36' E 022°12'0 0.0 320 / 121020.5 -8.1 0.7
2017-Jan-16 03:00N 65°36' E 022°12'0 0.0 310 / 141018.6 -7.5 0.7
2017-Jan-16 01:00N 65°36' E 022°12'0 0.0 330 / 121017.0 -8.0 0.7
2017-Jan-16 00:00N 65°36' E 022°12'0 0.0 320 / 121016.4 -8.8 0.6
2017-Jan-15 23:00N 65°36' E 022°12'0 0.0 320 / 101015.7 -10.4 0.7
2017-Jan-15 21:00N 65°36' E 022°12'0 0.0 330 / 101013.7 -12.9 0.7
2017-Jan-15 18:00N 65°36' E 022°12'0 0.0 320 / 81010.9 -16.2 0.7
2017-Jan-15 15:00N 65°36' E 022°12'0 0.0 350 / 101007.5 -14.8 0.7
2017-Jan-15 12:00N 65°36' E 022°12'0 0.0 340 / 61004.6 -14.7 0.7
2017-Jan-15 09:00N 65°36' E 022°12'0 0.0 340 / 61003.0 -15.2 0.7
2017-Jan-15 06:00N 65°36' E 022°12'0 0.0 200 / 21001.6 -14.6 0.7
2017-Jan-15 03:00N 65°36' E 022°12'0 0.0 260 1000.4 -13.9 0.7
2017-Jan-15 00:00N 65°36' E 022°12'0 0.0 310 / 4999.7 -10.4 0.8
2017-Jan-14 21:00N 65°36' E 022°12'0 0.0 200 / 4998.5 -12.4 0.7
2017-Jan-14 18:00N 65°36' E 022°12'0 0.0 210 / 4997.1 -9.6 0.7
2017-Jan-14 15:00N 65°36' E 022°12'0 0.0 320 / 4995.5 -6.7 0.7
2017-Jan-14 12:00N 65°36' E 022°12'0 0.0 310 / 8993.2 -4.9 0.7
2017-Jan-14 09:00N 65°36' E 022°12'0 0.0 330 / 4991.5 -4.9 0.6
2017-Jan-14 08:00N 65°36' E 022°12'0 0.0 340 / 8990.7 -4.9 0.7
2017-Jan-14 06:00N 65°36' E 022°12'0 0.0 350 / 8989.0 -4.8 0.8
2017-Jan-14 04:00N 65°36' E 022°12'0 0.0 060 / 8987.4 -4.3 0.7
2017-Jan-14 03:00N 65°36' E 022°12'0 0.0 020 / 4987.0 -2.9 0.8
2017-Jan-14 02:00N 65°36' E 022°12'0 0.0 300 / 2986.7 -2.7 0.7
2017-Jan-14 01:00N 65°36' E 022°12'0 0.0 190 / 6986.0 -2.5 0.8
2017-Jan-14 00:00N 65°36' E 022°12'0 0.0 160 / 8985.7 -1.6 0.8
2017-Jan-13 23:00N 65°36' E 022°12'0 0.0 120 / 16985.4 -1.7 0.8
2017-Jan-13 22:00N 65°36' E 022°12'0 0.0 120 / 10985.3 -1.6 0.7
2017-Jan-13 21:00N 65°36' E 022°12'0 0.0 140 / 10985.1 -1.6 0.7
2017-Jan-13 20:00N 65°36' E 022°12'0 0.0 150 / 14984.8 -1.5 0.7
2017-Jan-13 19:00N 65°36' E 022°12'0 0.0 140 / 14984.6 -1.3 0.7
2017-Jan-13 18:00N 65°36' E 022°12'0 0.0 140 / 12984.4 -1.4 0.7
2017-Jan-13 17:00N 65°36' E 022°12'0 0.0 130 / 8984.2 -1.3 0.6
2017-Jan-13 16:00N 65°36' E 022°12'0 0.0 140 / 16984.1 -1.3 0.6
2017-Jan-13 15:00N 65°36' E 022°12'0 0.0 150 / 14983.7 -1.3 0.6
2017-Jan-13 13:00N 65°36' E 022°12'0 0.0 150 / 14983.3 -1.2 0.7
2017-Jan-13 12:00N 65°36' E 022°12'0 0.0 150 / 17983.2 -1.2 0.6
2017-Jan-13 09:00N 65°36' E 022°12'0 0.0 150 / 14983.0 -1.4
2017-Jan-13 07:00N 65°36' E 022°12'0 0.0 160 / 17982.5 -1.4
2017-Jan-13 06:00N 65°36' E 022°12'0 0.0 150 / 19982.0 -1.3
2017-Jan-13 04:00N 65°36' E 022°12'0 0.0 150 / 17981.8 -1.5
2017-Jan-13 03:00N 65°36' E 022°12'0 0.0 150 / 19981.7 -1.6
2017-Jan-13 00:00N 65°36' E 022°12'0 0.0 140 / 23981.2 -1.4
2017-Jan-12 21:00N 65°36' E 022°12'0 0.0 150 / 23980.4 -1.4
2017-Jan-12 18:00N 65°36' E 022°12'0 0.0 140 / 14980.7 -2.2
2017-Jan-12 15:00N 65°36' E 022°12'0 0.0 140 / 16 -2.6 0.8
2017-Jan-12 12:00N 65°36' E 022°12'0 0.0 120 / 17981.2 -3.1 0.8
2017-Jan-12 09:00N 65°36' E 022°12'0 0.0 140 / 16981.4 -2.7 0.8
2017-Jan-12 07:00N 65°36' E 022°12'0 0.0 150 / 14981.3 -2.9 0.8
2017-Jan-12 06:00N 65°36' E 022°12'0 0.0 150 / 17981.5 -2.9 0.8
2017-Jan-12 03:00N 65°36' E 022°12'0 0.0 150 / 25982.3 -2.1 0.9
2017-Jan-12 02:00N 65°36' E 022°12'0 0.0 160 / 19982.8 -1.9 0.9
2017-Jan-12 01:00N 65°36' E 022°12'0 0.0 160 / 23982.8 -0.7 0.8
2017-Jan-12 00:00N 65°36' E 022°12'0 0.0 170 / 21982.7 0.2 0.8
2017-Jan-11 23:00N 65°36' E 022°12'0 0.0 160 / 23982.7 0.4 0.8
2017-Jan-11 21:00N 65°36' E 022°12'0 0.0 180 / 23983.2 0.5 0.8
2017-Jan-11 18:00N 65°36' E 022°12'0 0.0 180 / 31983.2 0.9 0.9
2017-Jan-11 16:00N 65°36' E 022°12'0 0.0 180 / 35983.1 1.1 0.9
2017-Jan-11 15:00N 65°36' E 022°12'0 0.0 190 / 29983.2 0.8 0.8
2017-Jan-11 13:00N 65°36' E 022°12'0 0.0 190 / 33983.0 1.1 0.8
2017-Jan-11 12:00N 65°36' E 022°12'0 0.0 200 / 31983.5 1.0 0.8
2017-Jan-11 11:00N 65°36' E 022°12'0 0.0 200 / 25983.9 1.1 0.8
2017-Jan-11 09:00N 65°36' E 022°12'0 0.0 190 / 25985.0 0.7 0.8
2017-Jan-11 06:00N 65°36' E 022°12'0 0.0 190 / 31985.8 1.1 0.8
2017-Jan-11 03:00N 65°36' E 022°12'0 0.0 190 / 23988.3 0.7 0.9
2017-Jan-11 00:00N 65°36' E 022°12'0 0.0 190 / 27991.1 0.9 0.9
2017-Jan-10 21:00N 65°36' E 022°12'0 0.0 190 / 23993.5 1.1 0.9
2017-Jan-10 18:00N 65°36' E 022°12'0 0.0 180 / 8995.7 -0.7 0.8
2017-Jan-10 15:00N 65°36' E 022°12'0 0.0 190 / 12997.2 -1.0 0.9
2017-Jan-10 12:00N 65°36' E 022°12'17 5.8 020 / 2998.7 -1.6 0.7
2017-Jan-10 09:00N 65°24' E 022°42'1313.0 220 / 10999.1 -0.0 0.4
2017-Jan-10 08:00N 65°12' E 022°54'1211.7 230 / 8999.1 0.1 0.4
2017-Jan-10 07:00N 65°06' E 022°30'1414.0 220 / 8998.8 0.5 1.2
2017-Jan-10 06:00N 65°00' E 022°00'1615.7 210 / 8998.6 0.5 1.3
2017-Jan-10 05:00N 65°12' E 021°36'0 0.0 210 / 12998.4 -0.2 0.5
2017-Jan-10 04:00N 65°12' E 021°36'0 0.0 180 / 6998.4 0.1 0.8
2017-Jan-10 03:00N 65°12' E 021°36'0 0.0 200 / 8999.0 0.2 0.7
2017-Jan-10 02:00N 65°12' E 021°36'0 0.0 190 / 12999.2 0.1 0.8
2017-Jan-10 01:00N 65°12' E 021°36'0 0.0 180 / 10999.5 -0.0 0.9
2017-Jan-10 00:00N 65°12' E 021°36'0 0.0 190 / 101000.0 -0.1 0.8
2017-Jan-09 23:00N 65°12' E 021°36'0 0.0 150 / 101000.6 -0.0 0.8
2017-Jan-09 22:00N 65°12' E 021°36'0 0.0 150 / 61001.3 -0.2 0.8
2017-Jan-09 21:00N 65°12' E 021°36'0 0.0 170 / 101002.0 -0.4 0.8
2017-Jan-09 20:00N 65°12' E 021°36'0 0.0 160 / 81002.6 -0.0 0.8
2017-Jan-09 19:00N 65°12' E 021°36'0 0.0 190 / 81003.0 0.2 0.8
2017-Jan-09 18:00N 65°12' E 021°36'0 0.0 230 / 41002.9 1.0 0.8
2017-Jan-09 17:00N 65°12' E 021°36'0 0.0 280 / 81003.2 0.5 0.8
2017-Jan-09 16:00N 65°12' E 021°36'0 0.0 250 / 101003.4 0.1 0.8
2017-Jan-09 15:00N 65°12' E 021°36'0 0.0 270 / 101003.5 -0.3 0.8
2017-Jan-09 14:00N 65°12' E 021°36'0 0.0 250 / 121003.8 -0.3 0.8
2017-Jan-09 13:00N 65°12' E 021°36'0 0.0 260 / 141003.9 0.3 0.8
2017-Jan-09 12:00N 65°12' E 021°36'0 0.0 250 / 141003.7 1.0 0.9
2017-Jan-09 11:00N 65°12' E 021°36'0 0.0 260 / 141003.8 1.3 0.8
2017-Jan-09 10:00N 65°12' E 021°36'0 0.0 260 / 121003.7 1.4 0.8
2017-Jan-09 09:00N 65°12' E 021°36'0 0.0 250 / 121003.1 1.5 0.8
2017-Jan-09 08:00N 65°12' E 021°36'0 0.0 250 / 191002.5 1.8 0.9
2017-Jan-09 07:00N 65°12' E 021°36'0 0.0 240 / 161002.1 1.7 0.9
2017-Jan-09 06:00N 65°12' E 021°36'0 0.0 260 / 211001.6 1.5 0.9
2017-Jan-09 05:00N 65°12' E 021°36'0 0.0 250 / 171001.7 1.1 0.8
2017-Jan-09 04:00N 65°12' E 021°36'0 0.0 260 / 101002.3 1.3 0.9
2017-Jan-09 03:00N 65°12' E 021°36'0 0.0 260 / 121003.1 1.0 0.9
2017-Jan-09 02:00N 65°12' E 021°36'0 0.0 260 / 171004.0 0.8 0.8
2017-Jan-09 01:00N 65°12' E 021°36'0 0.0 270 / 141004.2 1.3 0.8
2017-Jan-09 00:00N 65°12' E 021°36'0 0.0 290 / 141003.9 2.5 0.9
2017-Jan-08 23:00N 65°12' E 021°36'0 0.0 280 / 161003.7 2.7 1.0
2017-Jan-08 22:00N 65°12' E 021°36'0 0.0 280 / 191002.9 3.0 1.0
2017-Jan-08 21:00N 65°12' E 021°36'0 0.0 280 / 191002.5 2.9 1.0
2017-Jan-08 20:00N 65°12' E 021°36'0 0.0 280 / 251001.2 3.6 1.0
2017-Jan-08 19:00N 65°12' E 021°36'0 0.0 280 / 191000.5 4.3 1.0
2017-Jan-08 18:00N 65°12' E 021°36'0 0.0 280 / 29998.8 4.5 0.9
2017-Jan-08 17:00N 65°12' E 021°36'0 0.0 270 / 27998.1 4.0 0.8
2017-Jan-08 16:00N 65°12' E 021°36'   240 / 23997.5 3.4 0.6
Track history (hours):
 
Tides and Currents Weather Stations Pressure Air Temp Water Temp Dewpoint Dewpoint Depression Visibility Wind Speed Wind Dir Waves Ship Positions

Frej

Last reported at 2017-Jan-18 16:00 UTC. Time now 2017-Jan-18 18:06 UTC.
Position N 65°36' E 022°12'.

Length 108 m; draft 7.8 m.

Type: Other ship. MMSI: 265068000.

Wind from 190 at 16 knots

Barometer 1003.1 mb
Air temperature 2.3 ° C
Water temperature 0.5 ° C

Date/timePositionNaut miles runAvg speedWind from/ knotsBaromVisibWave heightAir tempDewpointWater temp
2017-Jan-18 16:00N 65°36' E 022°12'0 0.0 190 / 161003.1 2.3 0.5
2017-Jan-18 15:00N 65°36' E 022°12'0 0.0 190 / 101004.9 1.5 0.5
2017-Jan-18 12:00N 65°36' E 022°12'0 0.0 190 / 271008.9 0.5 0.6
2017-Jan-18 09:00N 65°36' E 022°12'0 0.0 230 / 141015.4 -1.3 0.7
2017-Jan-18 06:00N 65°36' E 022°12'0 0.0 240 / 81017.1 -1.9 0.6
2017-Jan-18 05:00N 65°36' E 022°12'0 0.0 290 / 61017.1 -0.9 0.7
2017-Jan-18 03:00N 65°36' E 022°12'0 0.0 310 / 81018.4 -1.3 0.6
2017-Jan-18 00:00N 65°36' E 022°12'0 0.0 280 / 81017.9 -1.0 0.6
2017-Jan-17 21:00N 65°36' E 022°12'0 0.0 270 / 171016.0 -0.0 0.6
2017-Jan-17 18:00N 65°36' E 022°12'0 0.0 270 / 121014.7 -0.8 0.7
2017-Jan-17 15:00N 65°36' E 022°12'0 0.0 190 / 61014.4 -3.1 0.7
2017-Jan-17 12:00N 65°36' E 022°12'0 0.0 180 / 81015.5 -3.2 0.7
2017-Jan-17 09:00N 65°36' E 022°12'0 0.0 210 / 101017.1 -4.6 0.7
2017-Jan-17 06:00N 65°36' E 022°12'0 0.0 200 / 121018.0 -5.4 0.7
2017-Jan-17 03:00N 65°36' E 022°12'0 0.0 190 / 141019.3 -6.6 0.7
2017-Jan-17 00:00N 65°36' E 022°12'0 0.0 180 / 101021.1 -11.6 0.7
2017-Jan-16 21:00N 65°36' E 022°12'0 0.0 200 / 61022.4 -11.8 0.7
2017-Jan-16 18:00N 65°36' E 022°12'0 0.0 180 / 41023.3 -12.8 0.7
2017-Jan-16 15:00N 65°36' E 022°12'0 0.0 330 / 61023.8 -10.1 0.7
2017-Jan-16 12:00N 65°36' E 022°12'0 0.0 340 / 101022.9 -8.3 0.7
2017-Jan-16 10:00N 65°36' E 022°12'0 0.0 330 / 141022.8 -8.2 0.7
2017-Jan-16 09:00N 65°36' E 022°12'0 0.0 340 / 121022.5 -8.3 0.7
2017-Jan-16 08:00N 65°36' E 022°12'0 0.0 330 / 101022.0 -8.4 0.7
2017-Jan-16 06:00N 65°36' E 022°12'0 0.0 320 / 121020.5 -8.1 0.7
2017-Jan-16 03:00N 65°36' E 022°12'0 0.0 310 / 141018.6 -7.5 0.7
2017-Jan-16 01:00N 65°36' E 022°12'0 0.0 330 / 121017.0 -8.0 0.7
2017-Jan-16 00:00N 65°36' E 022°12'0 0.0 320 / 121016.4 -8.8 0.6
2017-Jan-15 23:00N 65°36' E 022°12'0 0.0 320 / 101015.7 -10.4 0.7
2017-Jan-15 21:00N 65°36' E 022°12'0 0.0 330 / 101013.7 -12.9 0.7
2017-Jan-15 18:00N 65°36' E 022°12'0 0.0 320 / 81010.9 -16.2 0.7
2017-Jan-15 15:00N 65°36' E 022°12'0 0.0 350 / 101007.5 -14.8 0.7
2017-Jan-15 12:00N 65°36' E 022°12'0 0.0 340 / 61004.6 -14.7 0.7
2017-Jan-15 09:00N 65°36' E 022°12'0 0.0 340 / 61003.0 -15.2 0.7
2017-Jan-15 06:00N 65°36' E 022°12'0 0.0 200 / 21001.6 -14.6 0.7
2017-Jan-15 03:00N 65°36' E 022°12'0 0.0 260 1000.4 -13.9 0.7
2017-Jan-15 00:00N 65°36' E 022°12'0 0.0 310 / 4999.7 -10.4 0.8
2017-Jan-14 21:00N 65°36' E 022°12'0 0.0 200 / 4998.5 -12.4 0.7
2017-Jan-14 18:00N 65°36' E 022°12'0 0.0 210 / 4997.1 -9.6 0.7
2017-Jan-14 15:00N 65°36' E 022°12'0 0.0 320 / 4995.5 -6.7 0.7
2017-Jan-14 12:00N 65°36' E 022°12'0 0.0 310 / 8993.2 -4.9 0.7
2017-Jan-14 09:00N 65°36' E 022°12'0 0.0 330 / 4991.5 -4.9 0.6
2017-Jan-14 08:00N 65°36' E 022°12'0 0.0 340 / 8990.7 -4.9 0.7
2017-Jan-14 06:00N 65°36' E 022°12'0 0.0 350 / 8989.0 -4.8 0.8
2017-Jan-14 04:00N 65°36' E 022°12'0 0.0 060 / 8987.4 -4.3 0.7
2017-Jan-14 03:00N 65°36' E 022°12'0 0.0 020 / 4987.0 -2.9 0.8
2017-Jan-14 02:00N 65°36' E 022°12'0 0.0 300 / 2986.7 -2.7 0.7
2017-Jan-14 01:00N 65°36' E 022°12'0 0.0 190 / 6986.0 -2.5 0.8
2017-Jan-14 00:00N 65°36' E 022°12'0 0.0 160 / 8985.7 -1.6 0.8
2017-Jan-13 23:00N 65°36' E 022°12'0 0.0 120 / 16985.4 -1.7 0.8
2017-Jan-13 22:00N 65°36' E 022°12'0 0.0 120 / 10985.3 -1.6 0.7
2017-Jan-13 21:00N 65°36' E 022°12'0 0.0 140 / 10985.1 -1.6 0.7
2017-Jan-13 20:00N 65°36' E 022°12'0 0.0 150 / 14984.8 -1.5 0.7
2017-Jan-13 19:00N 65°36' E 022°12'0 0.0 140 / 14984.6 -1.3 0.7
2017-Jan-13 18:00N 65°36' E 022°12'0 0.0 140 / 12984.4 -1.4 0.7
2017-Jan-13 17:00N 65°36' E 022°12'0 0.0 130 / 8984.2 -1.3 0.6
2017-Jan-13 16:00N 65°36' E 022°12'0 0.0 140 / 16984.1 -1.3 0.6
2017-Jan-13 15:00N 65°36' E 022°12'0 0.0 150 / 14983.7 -1.3 0.6
2017-Jan-13 13:00N 65°36' E 022°12'0 0.0 150 / 14983.3 -1.2 0.7
2017-Jan-13 12:00N 65°36' E 022°12'0 0.0 150 / 17983.2 -1.2 0.6
2017-Jan-13 09:00N 65°36' E 022°12'0 0.0 150 / 14983.0 -1.4
2017-Jan-13 07:00N 65°36' E 022°12'0 0.0 160 / 17982.5 -1.4
2017-Jan-13 06:00N 65°36' E 022°12'0 0.0 150 / 19982.0 -1.3
2017-Jan-13 04:00N 65°36' E 022°12'0 0.0 150 / 17981.8 -1.5
2017-Jan-13 03:00N 65°36' E 022°12'0 0.0 150 / 19981.7 -1.6
2017-Jan-13 00:00N 65°36' E 022°12'0 0.0 140 / 23981.2 -1.4
2017-Jan-12 21:00N 65°36' E 022°12'0 0.0 150 / 23980.4 -1.4
2017-Jan-12 18:00N 65°36' E 022°12'0 0.0 140 / 14980.7 -2.2
2017-Jan-12 15:00N 65°36' E 022°12'0 0.0 140 / 16 -2.6 0.8
2017-Jan-12 12:00N 65°36' E 022°12'0 0.0 120 / 17981.2 -3.1 0.8
2017-Jan-12 09:00N 65°36' E 022°12'0 0.0 140 / 16981.4 -2.7 0.8
2017-Jan-12 07:00N 65°36' E 022°12'0 0.0 150 / 14981.3 -2.9 0.8
2017-Jan-12 06:00N 65°36' E 022°12'0 0.0 150 / 17981.5 -2.9 0.8
2017-Jan-12 03:00N 65°36' E 022°12'0 0.0 150 / 25982.3 -2.1 0.9
2017-Jan-12 02:00N 65°36' E 022°12'0 0.0 160 / 19982.8 -1.9 0.9
2017-Jan-12 01:00N 65°36' E 022°12'0 0.0 160 / 23982.8 -0.7 0.8
2017-Jan-12 00:00N 65°36' E 022°12'0 0.0 170 / 21982.7 0.2 0.8
2017-Jan-11 23:00N 65°36' E 022°12'0 0.0 160 / 23982.7 0.4 0.8
2017-Jan-11 21:00N 65°36' E 022°12'0 0.0 180 / 23983.2 0.5 0.8
2017-Jan-11 18:00N 65°36' E 022°12'0 0.0 180 / 31983.2 0.9 0.9
2017-Jan-11 16:00N 65°36' E 022°12'0 0.0 180 / 35983.1 1.1 0.9
2017-Jan-11 15:00N 65°36' E 022°12'0 0.0 190 / 29983.2 0.8 0.8
2017-Jan-11 13:00N 65°36' E 022°12'0 0.0 190 / 33983.0 1.1 0.8
2017-Jan-11 12:00N 65°36' E 022°12'0 0.0 200 / 31983.5 1.0 0.8
2017-Jan-11 11:00N 65°36' E 022°12'0 0.0 200 / 25983.9 1.1 0.8
2017-Jan-11 09:00N 65°36' E 022°12'0 0.0 190 / 25985.0 0.7 0.8
2017-Jan-11 06:00N 65°36' E 022°12'0 0.0 190 / 31985.8 1.1 0.8
2017-Jan-11 03:00N 65°36' E 022°12'0 0.0 190 / 23988.3 0.7 0.9
2017-Jan-11 00:00N 65°36' E 022°12'0 0.0 190 / 27991.1 0.9 0.9
2017-Jan-10 21:00N 65°36' E 022°12'0 0.0 190 / 23993.5 1.1 0.9
2017-Jan-10 18:00N 65°36' E 022°12'0 0.0 180 / 8995.7 -0.7 0.8
2017-Jan-10 15:00N 65°36' E 022°12'0 0.0 190 / 12997.2 -1.0 0.9
2017-Jan-10 12:00N 65°36' E 022°12'17 5.8 020 / 2998.7 -1.6 0.7
2017-Jan-10 09:00N 65°24' E 022°42'1313.0 220 / 10999.1 -0.0 0.4
2017-Jan-10 08:00N 65°12' E 022°54'1211.7 230 / 8999.1 0.1 0.4
2017-Jan-10 07:00N 65°06' E 022°30'1414.0 220 / 8998.8 0.5 1.2
2017-Jan-10 06:00N 65°00' E 022°00'1615.7 210 / 8998.6 0.5 1.3
2017-Jan-10 05:00N 65°12' E 021°36'0 0.0 210 / 12998.4 -0.2 0.5
2017-Jan-10 04:00N 65°12' E 021°36'0 0.0 180 / 6998.4 0.1 0.8
2017-Jan-10 03:00N 65°12' E 021°36'0 0.0 200 / 8999.0 0.2 0.7
2017-Jan-10 02:00N 65°12' E 021°36'0 0.0 190 / 12999.2 0.1 0.8
2017-Jan-10 01:00N 65°12' E 021°36'0 0.0 180 / 10999.5 -0.0 0.9
2017-Jan-10 00:00N 65°12' E 021°36'0 0.0 190 / 101000.0 -0.1 0.8
2017-Jan-09 23:00N 65°12' E 021°36'0 0.0 150 / 101000.6 -0.0 0.8
2017-Jan-09 22:00N 65°12' E 021°36'0 0.0 150 / 61001.3 -0.2 0.8
2017-Jan-09 21:00N 65°12' E 021°36'0 0.0 170 / 101002.0 -0.4 0.8
2017-Jan-09 20:00N 65°12' E 021°36'0 0.0 160 / 81002.6 -0.0 0.8
2017-Jan-09 19:00N 65°12' E 021°36'0 0.0 190 / 81003.0 0.2 0.8
2017-Jan-09 18:00N 65°12' E 021°36'0 0.0 230 / 41002.9 1.0 0.8
2017-Jan-09 17:00N 65°12' E 021°36'0 0.0 280 / 81003.2 0.5 0.8
2017-Jan-09 16:00N 65°12' E 021°36'0 0.0 250 / 101003.4 0.1 0.8
2017-Jan-09 15:00N 65°12' E 021°36'0 0.0 270 / 101003.5 -0.3 0.8
2017-Jan-09 14:00N 65°12' E 021°36'0 0.0 250 / 121003.8 -0.3 0.8
2017-Jan-09 13:00N 65°12' E 021°36'0 0.0 260 / 141003.9 0.3 0.8
2017-Jan-09 12:00N 65°12' E 021°36'0 0.0 250 / 141003.7 1.0 0.9
2017-Jan-09 11:00N 65°12' E 021°36'0 0.0 260 / 141003.8 1.3 0.8
2017-Jan-09 10:00N 65°12' E 021°36'0 0.0 260 / 121003.7 1.4 0.8
2017-Jan-09 09:00N 65°12' E 021°36'0 0.0 250 / 121003.1 1.5 0.8
2017-Jan-09 08:00N 65°12' E 021°36'0 0.0 250 / 191002.5 1.8 0.9
2017-Jan-09 07:00N 65°12' E 021°36'0 0.0 240 / 161002.1 1.7 0.9
2017-Jan-09 06:00N 65°12' E 021°36'0 0.0 260 / 211001.6 1.5 0.9
2017-Jan-09 05:00N 65°12' E 021°36'0 0.0 250 / 171001.7 1.1 0.8
2017-Jan-09 04:00N 65°12' E 021°36'0 0.0 260 / 101002.3 1.3 0.9
2017-Jan-09 03:00N 65°12' E 021°36'0 0.0 260 / 121003.1 1.0 0.9
2017-Jan-09 02:00N 65°12' E 021°36'0 0.0 260 / 171004.0 0.8 0.8
2017-Jan-09 01:00N 65°12' E 021°36'0 0.0 270 / 141004.2 1.3 0.8
2017-Jan-09 00:00N 65°12' E 021°36'0 0.0 290 / 141003.9 2.5 0.9
2017-Jan-08 23:00N 65°12' E 021°36'0 0.0 280 / 161003.7 2.7 1.0
2017-Jan-08 22:00N 65°12' E 021°36'0 0.0 280 / 191002.9 3.0 1.0
2017-Jan-08 21:00N 65°12' E 021°36'0 0.0 280 / 191002.5 2.9 1.0
2017-Jan-08 20:00N 65°12' E 021°36'0 0.0 280 / 251001.2 3.6 1.0
2017-Jan-08 19:00N 65°12' E 021°36'0 0.0 280 / 191000.5 4.3 1.0
2017-Jan-08 18:00N 65°12' E 021°36'0 0.0 280 / 29998.8 4.5 0.9
2017-Jan-08 17:00N 65°12' E 021°36'0 0.0 270 / 27998.1 4.0 0.8
2017-Jan-08 16:00N 65°12' E 021°36'   240 / 23997.5 3.4 0.6

Dump ship's entire track history